Time,TemperatureF,DewpointF,PressureIn,WindDirection,WindDirectionDegrees,WindSpeedMPH,WindSpeedGustMPH,Humidity,HourlyPrecipIn,Conditions,Clouds,dailyrainin,SoftwareType,DateUTC
2013-03-15 00:02:00,57.0,22.0,30.17,SW,223,0.0,0.0,25,0.00,,,0.00,,2013-03-15 05:02:00,
2013-03-15 00:12:00,57.0,22.0,30.17,SW,223,0.0,0.0,25,0.00,,,0.00,,2013-03-15 05:12:00,
2013-03-15 00:22:00,56.0,23.0,30.16,SW,233,0.0,0.0,28,0.00,,,0.00,,2013-03-15 05:22:00,
2013-03-15 00:32:00,56.0,23.0,30.16,SW,233,0.0,0.0,28,0.00,,,0.00,,2013-03-15 05:32:00,
2013-03-15 00:42:00,56.0,23.0,30.16,SW,233,0.0,0.0,28,0.00,,,0.00,,2013-03-15 05:42:00,
2013-03-15 00:52:00,54.0,24.0,30.16,SW,236,0.0,0.0,31,0.00,,,0.00,,2013-03-15 05:52:00,
2013-03-15 01:02:00,54.0,24.0,30.16,SW,236,0.0,0.0,31,0.00,,,0.00,,2013-03-15 06:02:00,
2013-03-15 01:12:00,54.0,24.0,30.16,SW,236,0.0,0.0,31,0.00,,,0.00,,2013-03-15 06:12:00,
2013-03-15 01:22:00,52.0,25.0,30.17,WSW,253,0.0,0.0,35,0.00,,,0.00,,2013-03-15 06:22:00,
2013-03-15 01:32:00,52.0,25.0,30.17,WSW,253,0.0,0.0,35,0.00,,,0.00,,2013-03-15 06:32:00,
2013-03-15 01:42:00,52.0,25.0,30.17,WSW,253,0.0,0.0,35,0.00,,,0.00,,2013-03-15 06:42:00,
2013-03-15 01:53:00,50.0,25.0,30.16,WSW,251,0.0,0.0,38,0.00,,,0.00,,2013-03-15 06:53:00,
2013-03-15 02:02:00,50.0,25.0,30.16,WSW,251,0.0,0.0,38,0.00,,,0.00,,2013-03-15 07:02:00,
2013-03-15 02:12:00,50.0,25.0,30.16,WSW,251,0.0,0.0,38,0.00,,,0.00,,2013-03-15 07:12:00,
2013-03-15 02:22:00,51.0,24.0,30.16,WSW,253,0.0,0.0,35,0.00,,,0.00,,2013-03-15 07:22:00,
2013-03-15 02:32:00,51.0,24.0,30.16,WSW,253,0.0,0.0,35,0.00,,,0.00,,2013-03-15 07:32:00,
2013-03-15 02:42:00,51.0,24.0,30.16,WSW,253,0.0,0.0,35,0.00,,,0.00,,2013-03-15 07:42:00,
2013-03-15 02:52:00,51.0,23.0,30.15,WSW,253,0.0,0.0,33,0.00,,,0.00,,2013-03-15 07:52:00,
2013-03-15 03:02:00,51.0,23.0,30.15,WSW,253,0.0,0.0,33,0.00,,,0.00,,2013-03-15 08:02:00,
2013-03-15 03:12:00,51.0,23.0,30.15,WSW,253,0.0,0.0,33,0.00,,,0.00,,2013-03-15 08:12:00,
2013-03-15 03:22:00,51.0,21.0,30.14,WSW,253,0.0,0.0,31,0.00,,,0.00,,2013-03-15 08:22:00,
2013-03-15 03:32:00,51.0,21.0,30.14,WSW,253,0.0,0.0,31,0.00,,,0.00,,2013-03-15 08:32:00,
2013-03-15 03:42:00,51.0,21.0,30.14,WSW,253,0.0,0.0,31,0.00,,,0.00,,2013-03-15 08:42:00,
2013-03-15 03:52:00,52.0,20.0,30.13,West,278,0.0,1.0,28,0.00,,,0.00,,2013-03-15 08:52:00,
2013-03-15 04:02:00,52.0,20.0,30.13,West,278,0.0,1.0,28,0.00,,,0.00,,2013-03-15 09:02:00,
2013-03-15 04:12:00,52.0,20.0,30.13,West,278,0.0,1.0,28,0.00,,,0.00,,2013-03-15 09:12:00,
2013-03-15 04:22:00,52.0,19.0,30.13,WNW,301,0.0,5.0,27,0.00,,,0.00,,2013-03-15 09:22:00,
2013-03-15 04:33:00,52.0,19.0,30.13,WNW,301,0.0,5.0,27,0.00,,,0.00,,2013-03-15 09:33:00,
2013-03-15 04:43:00,52.0,19.0,30.13,WNW,301,0.0,5.0,27,0.00,,,0.00,,2013-03-15 09:43:00,
2013-03-15 04:53:00,51.0,21.0,30.11,WNW,298,0.0,1.0,31,0.00,,,0.00,,2013-03-15 09:53:00,
2013-03-15 05:00:00,50.0,23.0,30.11,West,275,0.0,5.0,34,0.00,,,0.00,,2013-03-15 10:00:00,
2013-03-15 05:02:00,51.0,21.0,30.11,WNW,298,0.0,1.0,31,0.00,,,0.00,,2013-03-15 10:02:00,
2013-03-15 05:12:00,51.0,21.0,30.11,WNW,298,0.0,1.0,31,0.00,,,0.00,,2013-03-15 10:12:00,
2013-03-15 05:23:00,50.0,23.0,30.11,West,275,0.0,5.0,34,0.00,,,0.00,,2013-03-15 10:23:00,
2013-03-15 05:33:00,50.0,23.0,30.11,West,275,0.0,5.0,34,0.00,,,0.00,,2013-03-15 10:33:00,
2013-03-15 05:43:00,50.0,23.0,30.11,West,275,0.0,5.0,34,0.00,,,0.00,,2013-03-15 10:43:00,
2013-03-15 05:52:00,50.0,23.0,30.11,West,275,0.0,5.0,34,0.00,,,0.00,,2013-03-15 10:52:00,
2013-03-15 06:23:00,50.0,23.0,30.11,WNW,284,0.0,3.0,35,0.00,,,0.00,,2013-03-15 11:23:00,
2013-03-15 06:30:00,50.0,23.0,30.12,WNW,284,0.0,0.0,34,0.00,,,0.00,,2013-03-15 11:30:00,
2013-03-15 06:32:00,50.0,23.0,30.11,WNW,284,0.0,3.0,35,0.00,,,0.00,,2013-03-15 11:32:00,
2013-03-15 06:42:00,50.0,23.0,30.11,WNW,284,0.0,3.0,35,0.00,,,0.00,,2013-03-15 11:42:00,
2013-03-15 06:52:00,50.0,23.0,30.12,WNW,284,0.0,0.0,34,0.00,,,0.00,,2013-03-15 11:52:00,
2013-03-15 07:02:00,50.0,23.0,30.12,WNW,284,0.0,0.0,34,0.00,,,0.00,,2013-03-15 12:02:00,
2013-03-15 07:12:00,50.0,23.0,30.12,WNW,284,0.0,0.0,34,0.00,,,0.00,,2013-03-15 12:12:00,
2013-03-15 07:23:00,50.0,23.0,30.12,WNW,284,0.0,0.0,34,0.00,,,0.00,,2013-03-15 12:23:00,
2013-03-15 07:52:00,52.0,21.0,30.11,WNW,284,0.0,0.0,29,0.00,,,0.00,,2013-03-15 12:52:00,
2013-03-15 08:02:00,52.0,21.0,30.11,WNW,284,0.0,0.0,29,0.00,,,0.00,,2013-03-15 13:02:00,
2013-03-15 08:12:00,52.0,21.0,30.11,WNW,284,0.0,0.0,29,0.00,,,0.00,,2013-03-15 13:12:00,
2013-03-15 08:22:00,52.0,22.0,30.11,WNW,284,0.0,0.0,30,0.00,,,0.00,,2013-03-15 13:22:00,
2013-03-15 08:32:00,52.0,22.0,30.11,WNW,284,0.0,0.0,30,0.00,,,0.00,,2013-03-15 13:32:00,
2013-03-15 08:42:00,52.0,22.0,30.11,WNW,284,0.0,0.0,30,0.00,,,0.00,,2013-03-15 13:42:00,
2013-03-15 08:52:00,51.0,24.0,30.13,WNW,292,0.0,0.0,35,0.00,,,0.00,,2013-03-15 13:52:00,
2013-03-15 09:02:00,51.0,24.0,30.13,WNW,292,0.0,0.0,35,0.00,,,0.00,,2013-03-15 14:02:00,
2013-03-15 09:12:00,51.0,24.0,30.13,WNW,292,0.0,0.0,35,0.00,,,0.00,,2013-03-15 14:12:00,
2013-03-15 09:22:00,54.0,27.0,30.12,NW,306,0.0,0.0,35,0.00,,,0.00,,2013-03-15 14:22:00,
2013-03-15 09:32:00,54.0,27.0,30.12,NW,306,0.0,0.0,35,0.00,,,0.00,,2013-03-15 14:32:00,
2013-03-15 09:42:00,54.0,27.0,30.12,NW,306,0.0,0.0,35,0.00,,,0.00,,2013-03-15 14:42:00,
2013-03-15 09:53:00,57.0,28.0,30.14,West,274,0.0,6.0,33,0.00,,,0.00,,2013-03-15 14:53:00,
2013-03-15 10:00:00,61.0,29.0,30.13,West,270,4.0,10.0,29,0.00,,,0.00,,2013-03-15 15:00:00,
2013-03-15 10:02:00,57.0,28.0,30.14,West,274,0.0,6.0,33,0.00,,,0.00,,2013-03-15 15:02:00,
2013-03-15 10:13:00,57.0,28.0,30.14,West,274,0.0,6.0,33,0.00,,,0.00,,2013-03-15 15:13:00,
2013-03-15 10:22:00,61.0,29.0,30.13,West,270,4.0,10.0,29,0.00,,,0.00,,2013-03-15 15:22:00,
2013-03-15 10:33:00,61.0,29.0,30.13,West,270,4.0,10.0,29,0.00,,,0.00,,2013-03-15 15:33:00,
2013-03-15 10:43:00,61.0,29.0,30.13,West,270,4.0,10.0,29,0.00,,,0.00,,2013-03-15 15:43:00,
2013-03-15 10:53:00,61.0,29.0,30.13,West,270,4.0,10.0,29,0.00,,,0.00,,2013-03-15 15:53:00,
2013-03-15 11:13:00,66.0,29.0,30.13,West,261,4.0,12.0,25,0.00,,,0.00,,2013-03-15 16:13:00,
2013-03-15 11:23:00,66.0,29.0,30.13,West,261,4.0,12.0,25,0.00,,,0.00,,2013-03-15 16:23:00,
2013-03-15 11:32:00,66.0,29.0,30.13,West,261,4.0,12.0,25,0.00,,,0.00,,2013-03-15 16:32:00,
2013-03-15 11:42:00,66.0,29.0,30.13,West,261,4.0,12.0,25,0.00,,,0.00,,2013-03-15 16:42:00,
2013-03-15 11:52:00,70.0,28.0,30.14,WSW,239,4.0,10.0,21,0.00,,,0.00,,2013-03-15 16:52:00,
2013-03-15 12:02:00,70.0,28.0,30.14,WSW,239,4.0,10.0,21,0.00,,,0.00,,2013-03-15 17:02:00,
2013-03-15 12:12:00,70.0,28.0,30.14,WSW,239,4.0,10.0,21,0.00,,,0.00,,2013-03-15 17:12:00,
2013-03-15 12:22:00,71.0,25.0,30.13,WSW,247,3.0,13.0,18,0.00,,,0.00,,2013-03-15 17:22:00,
2013-03-15 12:32:00,71.0,25.0,30.13,WSW,247,3.0,13.0,18,0.00,,,0.00,,2013-03-15 17:32:00,
2013-03-15 12:43:00,71.0,25.0,30.13,WSW,247,3.0,13.0,18,0.00,,,0.00,,2013-03-15 17:43:00,
2013-03-15 12:53:00,74.0,23.0,30.12,SW,234,1.0,14.0,15,0.00,,,0.00,,2013-03-15 17:53:00,
2013-03-15 13:01:00,76.0,22.0,30.10,SSW,192,4.0,11.0,13,0.00,,,0.00,,2013-03-15 18:01:00,
2013-03-15 13:02:00,74.0,23.0,30.12,SW,234,1.0,14.0,15,0.00,,,0.00,,2013-03-15 18:02:00,
2013-03-15 13:12:00,74.0,23.0,30.12,SW,234,1.0,14.0,15,0.00,,,0.00,,2013-03-15 18:12:00,
2013-03-15 13:22:00,76.0,22.0,30.10,SSW,192,4.0,11.0,13,0.00,,,0.00,,2013-03-15 18:22:00,
2013-03-15 13:32:00,76.0,22.0,30.10,SSW,192,4.0,11.0,13,0.00,,,0.00,,2013-03-15 18:32:00,
2013-03-15 13:42:00,76.0,22.0,30.10,SSW,192,4.0,11.0,13,0.00,,,0.00,,2013-03-15 18:42:00,
2013-03-15 13:52:00,76.0,22.0,30.10,SSW,192,4.0,11.0,13,0.00,,,0.00,,2013-03-15 18:52:00,
2013-03-15 14:23:00,80.0,23.0,30.05,NW,312,0.0,12.0,12,0.00,,,0.00,,2013-03-15 19:23:00,
2013-03-15 14:32:00,80.0,23.0,30.05,NW,312,0.0,12.0,12,0.00,,,0.00,,2013-03-15 19:32:00,
2013-03-15 14:42:00,80.0,23.0,30.05,NW,312,0.0,12.0,12,0.00,,,0.00,,2013-03-15 19:42:00,
2013-03-15 14:52:00,81.0,19.0,30.04,ESE,121,2.0,13.0,10,0.00,,,0.00,,2013-03-15 19:52:00,
2013-03-15 15:02:00,81.0,19.0,30.04,ESE,121,2.0,13.0,10,0.00,,,0.00,,2013-03-15 20:02:00,
2013-03-15 15:12:00,81.0,19.0,30.04,ESE,121,2.0,13.0,10,0.00,,,0.00,,2013-03-15 20:12:00,
2013-03-15 15:22:00,81.0,22.0,30.02,WNW,282,1.0,13.0,11,0.00,,,0.00,,2013-03-15 20:22:00,
2013-03-15 15:32:00,81.0,22.0,30.02,WNW,282,1.0,13.0,11,0.00,,,0.00,,2013-03-15 20:32:00,
2013-03-15 15:42:00,81.0,22.0,30.02,WNW,282,1.0,13.0,11,0.00,,,0.00,,2013-03-15 20:42:00,
2013-03-15 15:52:00,82.0,20.0,30.00,WSW,239,3.0,11.0,10,0.00,,,0.00,,2013-03-15 20:52:00,
2013-03-15 16:02:00,82.0,20.0,30.00,WSW,239,3.0,11.0,10,0.00,,,0.00,,2013-03-15 21:02:00,
2013-03-15 16:12:00,82.0,20.0,30.00,WSW,239,3.0,11.0,10,0.00,,,0.00,,2013-03-15 21:12:00,
2013-03-15 16:22:00,81.0,19.0,29.99,West,278,4.0,16.0,10,0.00,,,0.00,,2013-03-15 21:22:00,
2013-03-15 16:31:00,82.0,20.0,29.98,WSW,240,2.0,10.0,10,0.00,,,0.00,,2013-03-15 21:31:00,
2013-03-15 16:32:00,81.0,19.0,29.99,West,278,4.0,16.0,10,0.00,,,0.00,,2013-03-15 21:32:00,
2013-03-15 16:43:00,81.0,19.0,29.99,West,278,4.0,16.0,10,0.00,,,0.00,,2013-03-15 21:43:00,
2013-03-15 16:53:00,82.0,20.0,29.98,WSW,240,2.0,10.0,10,0.00,,,0.00,,2013-03-15 21:53:00,
2013-03-15 17:03:00,82.0,20.0,29.98,WSW,240,2.0,10.0,10,0.00,,,0.00,,2013-03-15 22:03:00,
2013-03-15 17:13:00,82.0,20.0,29.98,WSW,240,2.0,10.0,10,0.00,,,0.00,,2013-03-15 22:13:00,
2013-03-15 17:22:00,82.0,20.0,29.98,WSW,240,2.0,10.0,10,0.00,,,0.00,,2013-03-15 22:22:00,
2013-03-15 17:53:00,81.0,19.0,29.97,WSW,237,2.0,10.0,10,0.00,,,0.00,,2013-03-15 22:53:00,
2013-03-15 18:02:00,81.0,19.0,29.97,WSW,237,2.0,10.0,10,0.00,,,0.00,,2013-03-15 23:02:00,
2013-03-15 18:12:00,81.0,19.0,29.97,WSW,237,2.0,10.0,10,0.00,,,0.00,,2013-03-15 23:12:00,
2013-03-15 18:22:00,81.0,19.0,29.96,SSW,193,4.0,17.0,10,0.00,,,0.00,,2013-03-15 23:22:00,
2013-03-15 18:32:00,81.0,19.0,29.96,SSW,193,4.0,17.0,10,0.00,,,0.00,,2013-03-15 23:32:00,
2013-03-15 18:42:00,81.0,19.0,29.96,SSW,193,4.0,17.0,10,0.00,,,0.00,,2013-03-15 23:42:00,
2013-03-15 18:53:00,79.0,18.0,29.94,SW,230,1.0,13.0,10,0.00,,,0.00,,2013-03-15 23:53:00,
2013-03-15 19:00:00,77.0,18.0,29.95,SW,222,2.0,10.0,11,0.00,,,0.00,,2013-03-16 00:00:00,
2013-03-15 19:02:00,79.0,18.0,29.94,SW,230,1.0,13.0,10,0.00,,,0.00,,2013-03-16 00:02:00,
2013-03-15 19:12:00,79.0,18.0,29.94,SW,230,1.0,13.0,10,0.00,,,0.00,,2013-03-16 00:12:00,
2013-03-15 19:22:00,77.0,18.0,29.95,SW,222,2.0,10.0,11,0.00,,,0.00,,2013-03-16 00:22:00,
2013-03-15 19:32:00,77.0,18.0,29.95,SW,222,2.0,10.0,11,0.00,,,0.00,,2013-03-16 00:32:00,
2013-03-15 19:42:00,77.0,18.0,29.95,SW,222,2.0,10.0,11,0.00,,,0.00,,2013-03-16 00:42:00,
2013-03-15 19:52:00,77.0,18.0,29.95,SW,222,2.0,10.0,11,0.00,,,0.00,,2013-03-16 00:52:00,
2013-03-15 20:22:00,73.0,17.0,29.94,WNW,285,0.0,1.0,12,0.00,,,0.00,,2013-03-16 01:22:00,
2013-03-15 20:32:00,73.0,17.0,29.94,WNW,285,0.0,1.0,12,0.00,,,0.00,,2013-03-16 01:32:00,
2013-03-15 20:42:00,73.0,17.0,29.94,WNW,285,0.0,1.0,12,0.00,,,0.00,,2013-03-16 01:42:00,
2013-03-15 20:52:00,70.0,17.0,29.95,West,272,0.0,0.0,13,0.00,,,0.00,,2013-03-16 01:52:00,
2013-03-15 21:02:00,70.0,17.0,29.95,West,272,0.0,0.0,13,0.00,,,0.00,,2013-03-16 02:02:00,
2013-03-15 21:12:00,70.0,17.0,29.95,West,272,0.0,0.0,13,0.00,,,0.00,,2013-03-16 02:12:00,
2013-03-15 21:23:00,69.0,16.0,29.96,SW,226,0.0,0.0,13,0.00,,,0.00,,2013-03-16 02:23:00,
2013-03-15 21:32:00,69.0,16.0,29.96,SW,226,0.0,0.0,13,0.00,,,0.00,,2013-03-16 02:32:00,
2013-03-15 21:43:00,69.0,16.0,29.96,SW,226,0.0,0.0,13,0.00,,,0.00,,2013-03-16 02:43:00,
2013-03-15 21:52:00,67.0,15.0,29.96,WNW,298,0.0,0.0,13,0.00,,,0.00,,2013-03-16 02:52:00,
2013-03-15 22:02:00,67.0,15.0,29.96,WNW,298,0.0,0.0,13,0.00,,,0.00,,2013-03-16 03:02:00,
2013-03-15 22:12:00,67.0,15.0,29.96,WNW,298,0.0,0.0,13,0.00,,,0.00,,2013-03-16 03:12:00,
2013-03-15 22:22:00,65.0,15.0,29.97,WNW,296,0.0,0.0,14,0.00,,,0.00,,2013-03-16 03:22:00,
2013-03-15 22:32:00,65.0,15.0,29.97,WNW,296,0.0,0.0,14,0.00,,,0.00,,2013-03-16 03:32:00,
2013-03-15 22:43:00,65.0,15.0,29.97,WNW,296,0.0,0.0,14,0.00,,,0.00,,2013-03-16 03:43:00,
2013-03-15 22:53:00,62.0,14.0,29.96,WNW,298,0.0,0.0,15,0.00,,,0.00,,2013-03-16 03:53:00,
2013-03-15 23:02:00,62.0,14.0,29.96,WNW,298,0.0,0.0,15,0.00,,,0.00,,2013-03-16 04:02:00,
2013-03-15 23:13:00,62.0,14.0,29.96,WNW,298,0.0,0.0,15,0.00,,,0.00,,2013-03-16 04:13:00,
2013-03-15 23:22:00,60.0,15.0,29.97,WNW,298,0.0,0.0,17,0.00,,,0.00,,2013-03-16 04:22:00,
2013-03-15 23:32:00,60.0,15.0,29.97,WNW,298,0.0,0.0,17,0.00,,,0.00,,2013-03-16 04:32:00,
2013-03-15 23:43:00,60.0,15.0,29.97,WNW,298,0.0,0.0,17,0.00,,,0.00,,2013-03-16 04:43:00,
2013-03-15 23:53:00,58.0,13.0,29.96,WNW,298,0.0,0.0,17,0.00,,,0.00,,2013-03-16 04:53:00,